createdAt,value
2019-02-10T00:00:33.955Z,1000.90
2019-02-10T00:01:33.968Z,1000.92
2019-02-10T00:02:33.956Z,1000.87
2019-02-10T00:03:33.927Z,1000.87
2019-02-10T00:04:33.913Z,1000.84
2019-02-10T00:05:33.903Z,1000.85
2019-02-10T00:06:33.901Z,1000.83
2019-02-10T00:07:33.890Z,1000.80
2019-02-10T00:08:33.873Z,1000.77
2019-02-10T00:09:33.884Z,1000.75
2019-02-10T00:10:33.864Z,1000.69
2019-02-10T00:11:33.844Z,1000.69
2019-02-10T00:12:33.852Z,1000.70
2019-02-10T00:13:33.821Z,1000.67
2019-02-10T00:14:33.810Z,1000.64
2019-02-10T00:15:33.808Z,1000.60
2019-02-10T00:16:34.145Z,1000.60
2019-02-10T00:17:33.795Z,1000.57
2019-02-10T00:18:33.760Z,1000.55
2019-02-10T00:19:33.753Z,1000.56
2019-02-10T00:20:33.751Z,1000.51
2019-02-10T00:21:33.734Z,1000.51
2019-02-10T00:22:33.735Z,1000.53
2019-02-10T00:23:33.716Z,1000.53
2019-02-10T00:24:33.711Z,1000.51
2019-02-10T00:25:33.688Z,1000.47
2019-02-10T00:26:33.687Z,1000.47
2019-02-10T00:27:33.680Z,1000.39
2019-02-10T00:28:33.664Z,1000.36
2019-02-10T00:29:33.646Z,1000.36
2019-02-10T00:30:33.648Z,1000.35
2019-02-10T00:31:33.627Z,1000.29
2019-02-10T00:32:33.621Z,1000.28
2019-02-10T00:33:33.621Z,1000.27
2019-02-10T00:34:33.586Z,1000.22
2019-02-10T00:35:33.595Z,1000.17
2019-02-10T00:36:33.768Z,1000.09
2019-02-10T00:37:33.573Z,1000.07
2019-02-10T00:38:33.561Z,1000.05
2019-02-10T00:39:33.603Z,1000.01
2019-02-10T00:40:33.528Z,999.94
2019-02-10T00:41:33.531Z,999.95
2019-02-10T00:42:33.519Z,999.85
2019-02-10T00:43:33.499Z,999.87
2019-02-10T00:44:33.495Z,999.87
2019-02-10T00:45:33.474Z,999.86
2019-02-10T00:46:33.463Z,999.82
2019-02-10T00:47:33.480Z,999.85
2019-02-10T00:48:33.455Z,999.89
2019-02-10T00:49:33.442Z,999.87
2019-02-10T00:50:33.426Z,999.81
2019-02-10T00:51:33.413Z,999.80
2019-02-10T00:52:33.411Z,999.80
2019-02-10T00:53:33.384Z,999.82
2019-02-10T00:54:33.376Z,999.79
2019-02-10T00:55:33.363Z,999.74
2019-02-10T00:56:33.352Z,999.67
2019-02-10T00:57:33.369Z,999.68
2019-02-10T00:58:33.348Z,999.62
2019-02-10T00:59:33.387Z,999.63
2019-02-10T01:00:33.311Z,999.63
2019-02-10T01:01:33.314Z,999.60
2019-02-10T01:02:33.323Z,999.60
2019-02-10T01:03:33.290Z,999.57
2019-02-10T01:04:33.277Z,999.54
2019-02-10T01:05:33.307Z,999.52
2019-02-10T01:06:40.934Z,999.51
2019-02-10T01:07:33.270Z,999.48
2019-02-10T01:08:33.237Z,999.46
2019-02-10T01:09:33.227Z,999.44
2019-02-10T01:10:33.204Z,999.36
2019-02-10T01:11:33.195Z,999.32
2019-02-10T01:12:33.193Z,999.30
2019-02-10T01:13:33.177Z,999.22
2019-02-10T01:14:33.177Z,999.15
2019-02-10T01:15:33.147Z,999.11
2019-02-10T01:16:33.149Z,999.11
2019-02-10T01:17:33.167Z,999.10
2019-02-10T01:18:33.118Z,999.01
2019-02-10T01:19:33.113Z,999.07
2019-02-10T01:20:33.119Z,999.03
2019-02-10T01:21:33.087Z,998.99
2019-02-10T01:22:33.101Z,998.96
2019-02-10T01:23:33.075Z,998.93
2019-02-10T01:24:33.066Z,998.95
2019-02-10T01:25:33.042Z,998.88
2019-02-10T01:26:33.035Z,998.90
2019-02-10T01:27:33.033Z,998.90
2019-02-10T01:28:33.028Z,998.81
2019-02-10T01:29:33.028Z,998.75
2019-02-10T01:30:33.003Z,998.76
2019-02-10T01:31:33.043Z,998.72
2019-02-10T01:32:32.997Z,998.68
2019-02-10T01:33:32.961Z,998.68
2019-02-10T01:34:32.948Z,998.65
2019-02-10T01:35:32.939Z,998.58
2019-02-10T01:36:32.925Z,998.52
2019-02-10T01:37:32.933Z,998.47
2019-02-10T01:38:32.915Z,998.45
2019-02-10T01:39:32.893Z,998.41
2019-02-10T01:40:32.895Z,998.42
2019-02-10T01:41:32.873Z,998.43
2019-02-10T01:42:32.867Z,998.39
2019-02-10T01:43:33.123Z,998.36
2019-02-10T01:44:32.841Z,998.33
2019-02-10T01:45:32.902Z,998.39
2019-02-10T01:46:32.817Z,998.37
2019-02-10T01:47:32.812Z,998.32
2019-02-10T01:48:32.819Z,998.27
2019-02-10T01:49:32.791Z,998.24
2019-02-10T01:50:32.783Z,998.28
2019-02-10T01:51:32.766Z,998.28
2019-02-10T01:52:32.761Z,998.21
2019-02-10T01:53:32.759Z,998.18
2019-02-10T01:54:32.749Z,998.13
2019-02-10T01:55:33.091Z,998.09
2019-02-10T01:56:32.731Z,998.05
2019-02-10T01:57:32.706Z,998.00
2019-02-10T01:58:32.700Z,997.88
2019-02-10T01:59:32.689Z,997.81
2019-02-10T02:00:32.674Z,997.75
2019-02-10T02:01:32.707Z,997.73
2019-02-10T02:02:32.650Z,997.67
2019-02-10T02:03:32.669Z,997.66
2019-02-10T02:04:32.634Z,997.67
2019-02-10T02:05:32.629Z,997.61
2019-02-10T02:06:32.602Z,997.56
2019-02-10T02:07:32.620Z,997.49
2019-02-10T02:08:32.597Z,997.42
2019-02-10T02:09:32.798Z,997.37
2019-02-10T02:10:32.604Z,997.36
2019-02-10T02:11:32.564Z,997.40
2019-02-10T02:12:32.569Z,997.33
2019-02-10T02:13:32.563Z,997.31
2019-02-10T02:14:32.526Z,997.26
2019-02-10T02:15:32.505Z,997.20
2019-02-10T02:16:32.499Z,997.15
2019-02-10T02:17:32.485Z,997.07
2019-02-10T02:18:32.507Z,996.97
2019-02-10T02:19:32.481Z,997.04
2019-02-10T02:20:32.460Z,996.97
2019-02-10T02:21:32.445Z,996.93
2019-02-10T02:22:32.580Z,996.94
2019-02-10T02:23:32.446Z,996.91
2019-02-10T02:24:32.417Z,996.91
2019-02-10T02:25:32.407Z,996.91
2019-02-10T02:26:32.399Z,996.89
2019-02-10T02:27:32.387Z,996.90
2019-02-10T02:28:32.388Z,996.95
2019-02-10T02:29:32.358Z,996.91
2019-02-10T02:30:32.361Z,996.84
2019-02-10T02:31:32.338Z,996.75
2019-02-10T02:32:32.348Z,996.84
2019-02-10T02:33:32.330Z,996.78
2019-02-10T02:34:32.315Z,996.74
2019-02-10T02:35:32.294Z,996.78
2019-02-10T02:36:32.286Z,996.76
2019-02-10T02:37:32.268Z,996.74
2019-02-10T02:38:32.280Z,996.71
2019-02-10T02:39:32.267Z,996.70
2019-02-10T02:40:32.241Z,996.71
2019-02-10T02:41:32.279Z,996.70
2019-02-10T02:42:32.221Z,996.67
2019-02-10T02:43:32.243Z,996.67
2019-02-10T02:44:32.195Z,996.65
2019-02-10T02:45:32.187Z,996.62
2019-02-10T02:46:32.171Z,996.58
2019-02-10T02:47:32.178Z,996.52
2019-02-10T02:48:32.172Z,996.44
2019-02-10T02:49:32.146Z,996.41
2019-02-10T02:50:32.136Z,996.35
2019-02-10T02:51:32.133Z,996.37
2019-02-10T02:52:32.114Z,996.27
2019-02-10T02:53:32.117Z,996.20
2019-02-10T02:54:32.105Z,996.11
2019-02-10T02:55:32.101Z,996.10
2019-02-10T02:56:32.075Z,996.08
2019-02-10T02:57:32.063Z,996.05
2019-02-10T02:58:32.083Z,995.96
2019-02-10T02:59:32.048Z,995.93
2019-02-10T03:00:32.031Z,995.95
2019-02-10T03:01:32.013Z,995.84
2019-02-10T03:02:32.003Z,995.76
2019-02-10T03:03:32.013Z,995.76
2019-02-10T03:04:31.983Z,995.66
2019-02-10T03:05:31.982Z,995.51
2019-02-10T03:06:31.964Z,995.54
2019-02-10T03:07:31.957Z,995.48
2019-02-10T03:08:31.953Z,995.47
2019-02-10T03:09:31.933Z,995.45
2019-02-10T03:10:31.920Z,995.39
2019-02-10T03:11:31.908Z,995.37
2019-02-10T03:12:31.940Z,995.33
2019-02-10T03:13:31.936Z,995.25
2019-02-10T03:14:31.885Z,995.32
2019-02-10T03:15:31.869Z,995.35
2019-02-10T03:16:31.866Z,995.31
2019-02-10T03:17:31.844Z,995.32
2019-02-10T03:18:31.861Z,995.27
2019-02-10T03:19:31.839Z,995.25
2019-02-10T03:20:31.815Z,995.17
2019-02-10T03:21:31.814Z,995.20
2019-02-10T03:22:31.812Z,995.17
2019-02-10T03:23:31.787Z,995.15
2019-02-10T03:24:31.786Z,995.10
2019-02-10T03:25:31.758Z,995.07
2019-02-10T03:26:31.760Z,995.04
2019-02-10T03:27:31.737Z,994.98
2019-02-10T03:28:31.728Z,994.92
2019-02-10T03:29:31.736Z,994.87
2019-02-10T03:30:31.721Z,994.79
2019-02-10T03:31:31.703Z,994.76
2019-02-10T03:32:31.690Z,994.73
2019-02-10T03:33:31.680Z,994.68
2019-02-10T03:34:31.684Z,994.66
2019-02-10T03:35:31.663Z,994.60
2019-02-10T03:36:31.657Z,994.61
2019-02-10T03:37:31.627Z,994.55
2019-02-10T03:38:31.623Z,994.54
2019-02-10T03:39:31.618Z,994.52
2019-02-10T03:40:31.612Z,994.49
2019-02-10T03:41:31.598Z,994.47
2019-02-10T03:42:31.583Z,994.46
2019-02-10T03:43:31.601Z,994.38
2019-02-10T03:44:31.577Z,994.34
2019-02-10T03:45:31.559Z,994.22
2019-02-10T03:46:31.532Z,994.23
2019-02-10T03:47:31.528Z,994.20
2019-02-10T03:48:31.514Z,994.21
2019-02-10T03:49:31.531Z,994.13
2019-02-10T03:50:31.514Z,994.11
2019-02-10T03:51:31.479Z,994.11
2019-02-10T03:52:31.469Z,994.00
2019-02-10T03:53:31.468Z,994.07
2019-02-10T03:54:31.468Z,994.00
2019-02-10T03:55:31.448Z,993.94
2019-02-10T03:56:31.421Z,993.91
2019-02-10T03:57:31.431Z,993.90
2019-02-10T03:58:31.412Z,993.84
2019-02-10T03:59:31.424Z,993.82
2019-02-10T04:00:31.407Z,993.60
2019-02-10T04:01:31.384Z,993.65
2019-02-10T04:02:31.361Z,993.46
2019-02-10T04:03:31.417Z,993.46
2019-02-10T04:04:31.364Z,993.38
2019-02-10T04:05:31.333Z,993.41
2019-02-10T04:06:31.318Z,993.37
2019-02-10T04:07:36.246Z,993.31
2019-02-10T04:08:31.304Z,993.34
2019-02-10T04:09:31.322Z,993.33
2019-02-10T04:10:31.282Z,993.32
2019-02-10T04:11:31.261Z,993.31
2019-02-10T04:12:31.264Z,993.19
2019-02-10T04:13:31.281Z,993.14
2019-02-10T04:14:31.253Z,993.08
2019-02-10T04:15:31.230Z,993.17
2019-02-10T04:16:31.214Z,993.14
2019-02-10T04:17:31.217Z,993.10
2019-02-10T04:18:31.189Z,993.09
2019-02-10T04:19:31.222Z,993.03
2019-02-10T04:20:31.166Z,992.99
2019-02-10T04:21:31.196Z,993.04
2019-02-10T04:22:31.161Z,992.94
2019-02-10T04:23:31.141Z,992.90
2019-02-10T04:24:31.149Z,992.91
2019-02-10T04:25:31.117Z,992.93
2019-02-10T04:26:31.110Z,992.80
2019-02-10T04:27:31.098Z,992.79
2019-02-10T04:28:31.084Z,992.66
2019-02-10T04:29:31.092Z,992.67
2019-02-10T04:30:31.066Z,992.67
2019-02-10T04:31:31.073Z,992.68
2019-02-10T04:32:31.131Z,992.60
2019-02-10T04:33:31.120Z,992.62
2019-02-10T04:34:31.041Z,992.47
2019-02-10T04:35:31.050Z,992.49
2019-02-10T04:36:30.991Z,992.41
2019-02-10T04:37:30.997Z,992.29
2019-02-10T04:38:31.003Z,992.36
2019-02-10T04:39:31.004Z,992.34
2019-02-10T04:40:30.958Z,992.27
2019-02-10T04:41:30.948Z,992.28
2019-02-10T04:42:30.942Z,992.24
2019-02-10T04:43:30.933Z,992.22
2019-02-10T04:44:30.924Z,992.16
2019-02-10T04:45:30.917Z,992.13
2019-02-10T04:46:30.895Z,992.15
2019-02-10T04:47:30.889Z,992.09
2019-02-10T04:48:30.884Z,992.05
2019-02-10T04:49:30.865Z,992.04
2019-02-10T04:50:30.866Z,991.99
2019-02-10T04:51:30.862Z,992.02
2019-02-10T04:52:30.837Z,991.93
2019-02-10T04:53:30.823Z,991.87
2019-02-10T04:54:30.804Z,991.78
2019-02-10T04:55:30.806Z,991.84
2019-02-10T04:56:30.789Z,991.71
2019-02-10T04:57:30.771Z,991.65
2019-02-10T04:58:30.763Z,991.73
2019-02-10T04:59:30.766Z,991.59
2019-02-10T05:00:30.757Z,991.60
2019-02-10T05:01:30.740Z,991.56
2019-02-10T05:02:30.720Z,991.51
2019-02-10T05:03:30.716Z,991.52
2019-02-10T05:04:30.706Z,991.51
2019-02-10T05:05:30.703Z,991.48
2019-02-10T05:06:30.727Z,991.45
2019-02-10T05:07:30.665Z,991.47
2019-02-10T05:08:30.657Z,991.29
2019-02-10T05:09:30.653Z,991.37
2019-02-10T05:10:30.728Z,991.31
2019-02-10T05:11:30.642Z,991.28
2019-02-10T05:12:30.627Z,991.24
2019-02-10T05:13:30.601Z,991.19
2019-02-10T05:14:30.675Z,991.24
2019-02-10T05:15:30.600Z,991.22
2019-02-10T05:16:30.609Z,991.21
2019-02-10T05:17:30.588Z,991.19
2019-02-10T05:18:30.585Z,991.22
2019-02-10T05:19:30.542Z,991.05
2019-02-10T05:20:30.585Z,991.06
2019-02-10T05:21:30.525Z,991.05
2019-02-10T05:22:30.517Z,990.99
2019-02-10T05:23:30.494Z,991.05
2019-02-10T05:24:30.511Z,990.94
2019-02-10T05:25:30.487Z,990.82
2019-02-10T05:26:30.471Z,990.87
2019-02-10T05:27:30.473Z,990.79
2019-02-10T05:28:30.440Z,990.80
2019-02-10T05:29:30.466Z,990.82
2019-02-10T05:30:30.472Z,990.85
2019-02-10T05:31:30.415Z,990.76
2019-02-10T05:32:30.404Z,990.71
2019-02-10T05:33:30.390Z,990.73
2019-02-10T05:34:30.433Z,990.63
2019-02-10T05:35:30.380Z,990.68
2019-02-10T05:36:30.412Z,990.69
2019-02-10T05:37:30.459Z,990.66
2019-02-10T05:38:30.338Z,990.58
2019-02-10T05:39:30.353Z,990.57
2019-02-10T05:40:30.343Z,990.59
2019-02-10T05:41:30.322Z,990.52
2019-02-10T05:42:30.292Z,990.49
2019-02-10T05:43:30.285Z,990.48
2019-02-10T05:44:30.266Z,990.44
2019-02-10T05:45:30.385Z,990.33
2019-02-10T05:46:30.376Z,990.36
2019-02-10T05:47:30.246Z,990.32
2019-02-10T05:48:30.237Z,990.24
2019-02-10T05:49:30.266Z,990.22
2019-02-10T05:50:30.255Z,990.18
2019-02-10T05:51:30.192Z,990.16
2019-02-10T05:52:30.184Z,990.19
2019-02-10T05:53:30.199Z,990.06
2019-02-10T05:54:30.167Z,990.12
2019-02-10T05:55:30.190Z,990.04
2019-02-10T05:56:30.158Z,990.02
2019-02-10T05:57:30.130Z,989.93
2019-02-10T05:58:30.122Z,989.86
2019-02-10T05:59:30.117Z,989.77
2019-02-10T06:00:30.157Z,989.89
2019-02-10T06:01:30.101Z,989.81
2019-02-10T06:02:30.095Z,989.86
2019-02-10T06:03:30.090Z,989.70
2019-02-10T06:04:30.057Z,989.76
2019-02-10T06:05:30.055Z,989.87
2019-02-10T06:06:30.054Z,989.71
2019-02-10T06:07:30.036Z,989.64
2019-02-10T06:08:30.015Z,989.72
2019-02-10T06:09:30.008Z,989.73
2019-02-10T06:10:29.994Z,989.66
2019-02-10T06:11:29.992Z,989.61
2019-02-10T06:12:29.995Z,989.50
2019-02-10T06:13:29.958Z,989.54
2019-02-10T06:14:29.965Z,989.54
2019-02-10T06:15:29.943Z,989.57
2019-02-10T06:16:29.971Z,989.42
2019-02-10T06:17:29.937Z,989.41
2019-02-10T06:18:29.904Z,989.28
2019-02-10T06:19:29.899Z,989.35
2019-02-10T06:20:29.899Z,989.29
2019-02-10T06:21:29.892Z,989.23
2019-02-10T06:22:29.898Z,989.30
2019-02-10T06:23:29.859Z,989.21
2019-02-10T06:24:29.867Z,989.13
2019-02-10T06:25:29.849Z,989.20
2019-02-10T06:26:29.835Z,989.11
2019-02-10T06:27:29.816Z,989.10
2019-02-10T06:28:29.802Z,989.10
2019-02-10T06:29:29.783Z,989.06
2019-02-10T06:30:29.800Z,989.06
2019-02-10T06:31:29.786Z,989.01
2019-02-10T06:32:29.770Z,989.00
2019-02-10T06:33:29.759Z,989.00
2019-02-10T06:34:29.727Z,988.90
2019-02-10T06:35:29.727Z,988.91
2019-02-10T06:36:29.806Z,988.92
2019-02-10T06:37:29.699Z,988.89
2019-02-10T06:38:29.704Z,988.90
2019-02-10T06:39:29.682Z,988.80
2019-02-10T06:40:29.666Z,988.75
2019-02-10T06:41:29.738Z,988.75
2019-02-10T06:42:29.668Z,988.69
2019-02-10T06:43:29.660Z,988.75
2019-02-10T06:44:29.635Z,988.60
2019-02-10T06:45:29.623Z,988.66
2019-02-10T06:46:29.634Z,988.74
2019-02-10T06:47:29.608Z,988.70
2019-02-10T06:48:29.592Z,988.65
2019-02-10T06:49:29.660Z,988.52
2019-02-10T06:50:29.565Z,988.54
2019-02-10T06:51:29.573Z,988.39
2019-02-10T06:52:29.547Z,988.39
2019-02-10T06:53:29.543Z,988.52
2019-02-10T06:54:29.518Z,988.44
2019-02-10T06:55:29.513Z,988.43
2019-02-10T06:56:29.523Z,988.44
2019-02-10T06:57:29.508Z,988.44
2019-02-10T06:58:29.475Z,988.46
2019-02-10T06:59:29.471Z,988.39
2019-02-10T07:00:29.475Z,988.44
2019-02-10T07:01:29.455Z,988.34
2019-02-10T07:02:29.440Z,988.44
2019-02-10T07:03:29.443Z,988.31
2019-02-10T07:04:29.421Z,988.32
2019-02-10T07:05:29.403Z,988.40
2019-02-10T07:06:29.409Z,988.20
2019-02-10T07:07:29.391Z,988.22
2019-02-10T07:08:30.884Z,988.33
2019-02-10T07:09:29.361Z,988.37
2019-02-10T07:10:29.359Z,988.19
2019-02-10T07:11:29.358Z,988.22
2019-02-10T07:12:29.333Z,988.20
2019-02-10T07:13:29.319Z,988.20
2019-02-10T07:14:29.307Z,988.24
2019-02-10T07:15:29.350Z,988.19
2019-02-10T07:16:29.323Z,988.18
2019-02-10T07:17:29.283Z,988.25
2019-02-10T07:18:29.264Z,988.18
2019-02-10T07:19:29.319Z,988.16
2019-02-10T07:20:29.295Z,988.13
2019-02-10T07:21:29.268Z,988.13
2019-02-10T07:22:29.222Z,988.12
2019-02-10T07:23:29.220Z,988.07
2019-02-10T07:24:29.204Z,988.09
2019-02-10T07:25:29.244Z,988.08
2019-02-10T07:26:29.227Z,988.11
2019-02-10T07:27:29.163Z,988.13
2019-02-10T07:28:29.152Z,988.13
2019-02-10T07:29:30.351Z,988.05
2019-02-10T07:30:29.146Z,988.03
2019-02-10T07:31:29.203Z,988.00
2019-02-10T07:32:29.122Z,987.94
2019-02-10T07:33:29.106Z,987.99
2019-02-10T07:34:29.095Z,987.98
2019-02-10T07:35:29.088Z,987.98
2019-02-10T07:36:29.087Z,987.85
2019-02-10T07:37:29.063Z,987.94
2019-02-10T07:38:29.052Z,987.90
2019-02-10T07:39:29.086Z,987.80
2019-02-10T07:40:29.067Z,987.96
2019-02-10T07:41:29.024Z,987.86
2019-02-10T07:42:29.029Z,987.99
2019-02-10T07:43:28.997Z,988.00
2019-02-10T07:44:28.986Z,987.90
2019-02-10T07:45:29.178Z,987.89
2019-02-10T07:46:28.962Z,987.84
2019-02-10T07:47:28.956Z,987.81
2019-02-10T07:48:28.945Z,987.66
2019-02-10T07:49:28.950Z,987.65
2019-02-10T07:50:28.916Z,987.67
2019-02-10T07:51:28.919Z,987.66
2019-02-10T07:52:28.909Z,987.67
2019-02-10T07:53:28.890Z,987.65
2019-02-10T07:54:28.877Z,987.62
2019-02-10T07:55:28.873Z,987.60
2019-02-10T07:56:28.992Z,987.64
2019-02-10T07:57:28.861Z,987.62
2019-02-10T07:58:28.855Z,987.67
2019-02-10T07:59:28.830Z,987.60
2019-02-10T08:00:28.850Z,987.58
2019-02-10T08:01:28.802Z,987.68
2019-02-10T08:02:28.860Z,987.68
2019-02-10T08:03:28.785Z,987.65
2019-02-10T08:04:28.771Z,987.69
2019-02-10T08:05:28.789Z,987.59
2019-02-10T08:06:28.768Z,987.67
2019-02-10T08:07:28.762Z,987.59
2019-02-10T08:08:28.755Z,987.59
2019-02-10T08:09:28.720Z,987.66
2019-02-10T08:10:28.726Z,987.67
2019-02-10T08:11:28.701Z,987.55
2019-02-10T08:12:29.383Z,987.67
2019-02-10T08:13:28.679Z,987.42
2019-02-10T08:14:28.669Z,987.44
2019-02-10T08:15:28.663Z,987.41
2019-02-10T08:16:28.640Z,987.37
2019-02-10T08:17:28.646Z,987.44
2019-02-10T08:18:28.643Z,987.39
2019-02-10T08:19:28.609Z,987.47
2019-02-10T08:20:28.603Z,987.43
2019-02-10T08:21:28.602Z,987.37
2019-02-10T08:22:28.594Z,987.36
2019-02-10T08:23:28.610Z,987.26
2019-02-10T08:24:28.681Z,987.24
2019-02-10T08:25:28.554Z,987.29
2019-02-10T08:26:28.632Z,987.24
2019-02-10T08:27:28.555Z,987.10
2019-02-10T08:28:28.515Z,987.21
2019-02-10T08:29:28.508Z,987.18
2019-02-10T08:30:28.494Z,987.04
2019-02-10T08:31:28.626Z,986.98
2019-02-10T08:32:28.510Z,986.88
2019-02-10T08:33:28.524Z,986.89
2019-02-10T08:34:28.458Z,986.93
2019-02-10T08:35:28.445Z,986.90
2019-02-10T08:36:28.426Z,986.88
2019-02-10T08:37:28.478Z,986.82
2019-02-10T08:38:28.442Z,986.79
2019-02-10T08:39:28.391Z,986.82
2019-02-10T08:40:28.387Z,986.83
2019-02-10T08:41:28.373Z,986.89
2019-02-10T08:42:28.380Z,986.86
2019-02-10T08:43:28.352Z,986.86
2019-02-10T08:44:28.351Z,986.83
2019-02-10T08:45:28.330Z,986.83
2019-02-10T08:46:28.320Z,986.89
2019-02-10T08:47:33.556Z,986.91
2019-02-10T08:48:28.308Z,986.86
2019-02-10T08:49:28.284Z,986.89
2019-02-10T08:50:28.299Z,986.86
2019-02-10T08:51:28.267Z,986.88
2019-02-10T08:52:28.275Z,986.81
2019-02-10T08:53:28.265Z,986.85
2019-02-10T08:54:28.247Z,986.82
2019-02-10T08:55:28.223Z,986.77
2019-02-10T08:56:28.213Z,986.76
2019-02-10T08:57:28.219Z,986.83
2019-02-10T08:58:28.198Z,986.77
2019-02-10T08:59:28.261Z,986.72
2019-02-10T09:00:28.239Z,986.71
2019-02-10T09:01:28.161Z,986.66
2019-02-10T09:02:28.209Z,986.58
2019-02-10T09:03:28.153Z,986.63
2019-02-10T09:04:28.134Z,986.67
2019-02-10T09:05:28.122Z,986.66
2019-02-10T09:06:28.130Z,986.60
2019-02-10T09:07:28.232Z,986.58
2019-02-10T09:08:28.109Z,986.62
2019-02-10T09:09:28.078Z,986.47
2019-02-10T09:10:28.059Z,986.64
2019-02-10T09:11:28.047Z,986.42
2019-02-10T09:12:28.059Z,986.41
2019-02-10T09:13:28.034Z,986.55
2019-02-10T09:14:28.071Z,986.51
2019-02-10T09:15:28.011Z,986.42
2019-02-10T09:16:28.045Z,986.43
2019-02-10T09:17:27.984Z,986.41
2019-02-10T09:18:28.054Z,986.41
2019-02-10T09:19:27.971Z,986.37
2019-02-10T09:20:27.969Z,986.25
2019-02-10T09:21:27.954Z,986.38
2019-02-10T09:22:27.938Z,986.31
2019-02-10T09:23:27.957Z,986.27
2019-02-10T09:24:27.911Z,986.13
2019-02-10T09:25:28.006Z,986.22
2019-02-10T09:26:27.893Z,986.18
2019-02-10T09:27:27.907Z,986.16
2019-02-10T09:28:27.946Z,986.30
2019-02-10T09:29:27.866Z,986.32
2019-02-10T09:30:27.860Z,986.18
2019-02-10T09:31:27.847Z,986.22
2019-02-10T09:32:27.823Z,986.03
2019-02-10T09:33:27.837Z,986.18
2019-02-10T09:34:27.817Z,986.20
2019-02-10T09:35:27.819Z,986.12
2019-02-10T09:36:27.796Z,986.04
2019-02-10T09:37:27.793Z,986.07
2019-02-10T09:38:27.811Z,985.99
2019-02-10T09:39:27.752Z,986.00
2019-02-10T09:40:27.831Z,985.95
2019-02-10T09:41:27.735Z,985.99
2019-02-10T09:42:27.729Z,985.85
2019-02-10T09:43:27.725Z,985.92
2019-02-10T09:44:27.710Z,985.93
2019-02-10T09:45:27.698Z,985.96
2019-02-10T09:46:27.682Z,985.89
2019-02-10T09:47:27.671Z,985.84
2019-02-10T09:48:27.688Z,985.80
2019-02-10T09:49:27.665Z,985.89
2019-02-10T09:50:27.649Z,985.88
2019-02-10T09:51:27.624Z,985.88
2019-02-10T09:52:27.614Z,985.80
2019-02-10T09:53:27.616Z,985.83
2019-02-10T09:54:27.618Z,985.78
2019-02-10T09:55:27.599Z,985.74
2019-02-10T09:56:27.576Z,985.68
2019-02-10T09:57:27.562Z,985.78
2019-02-10T09:58:27.576Z,985.73
2019-02-10T09:59:27.537Z,985.77
2019-02-10T10:00:27.538Z,985.81
2019-02-10T10:01:27.529Z,985.68
2019-02-10T10:02:27.564Z,985.73
2019-02-10T10:03:27.512Z,985.68
2019-02-10T10:04:27.501Z,985.56
2019-02-10T10:05:27.528Z,985.60
2019-02-10T10:06:27.471Z,985.64
2019-02-10T10:07:27.474Z,985.62
2019-02-10T10:08:27.462Z,985.62
2019-02-10T10:09:27.462Z,985.59
2019-02-10T10:10:27.417Z,985.49
2019-02-10T10:11:27.416Z,985.50
2019-02-10T10:12:27.414Z,985.54
2019-02-10T10:13:27.403Z,985.60
2019-02-10T10:14:30.785Z,985.42
2019-02-10T10:15:27.375Z,985.50
2019-02-10T10:16:27.358Z,985.44
2019-02-10T10:17:27.350Z,985.44
2019-02-10T10:18:27.357Z,985.47
2019-02-10T10:19:27.333Z,985.35
2019-02-10T10:20:27.318Z,985.37
2019-02-10T10:21:27.346Z,985.35
2019-02-10T10:22:27.291Z,985.36
2019-02-10T10:23:27.300Z,985.36
2019-02-10T10:24:27.273Z,985.28
2019-02-10T10:25:27.344Z,985.31
2019-02-10T10:26:27.247Z,985.24
2019-02-10T10:27:27.246Z,985.23
2019-02-10T10:28:27.249Z,985.28
2019-02-10T10:29:27.245Z,985.27
2019-02-10T10:30:27.220Z,985.22
2019-02-10T10:31:27.229Z,985.29
2019-02-10T10:32:27.226Z,985.24
2019-02-10T10:33:27.202Z,985.23
2019-02-10T10:34:27.206Z,985.30
2019-02-10T10:35:27.197Z,985.30
2019-02-10T10:36:27.143Z,985.26
2019-02-10T10:37:27.134Z,985.26
2019-02-10T10:38:27.133Z,985.22
2019-02-10T10:39:27.695Z,985.23
2019-02-10T10:40:27.104Z,985.27
2019-02-10T10:41:27.090Z,985.30
2019-02-10T10:42:27.133Z,985.30
2019-02-10T10:43:27.104Z,985.26
2019-02-10T10:44:27.068Z,985.32
2019-02-10T10:45:27.047Z,985.32
2019-02-10T10:46:27.041Z,985.31
2019-02-10T10:47:27.030Z,985.36
2019-02-10T10:48:27.075Z,985.33
2019-02-10T10:49:27.025Z,985.39
2019-02-10T10:50:26.988Z,985.36
2019-02-10T10:51:26.984Z,985.37
2019-02-10T10:52:26.991Z,985.34
2019-02-10T10:53:27.009Z,985.38
2019-02-10T10:54:26.950Z,985.45
2019-02-10T10:55:26.942Z,985.30
2019-02-10T10:56:27.001Z,985.39
2019-02-10T10:57:26.952Z,985.38
2019-02-10T10:58:26.954Z,985.32
2019-02-10T10:59:26.945Z,985.33
2019-02-10T11:00:26.890Z,985.33
2019-02-10T11:01:26.937Z,985.41
2019-02-10T11:02:31.212Z,985.35
2019-02-10T11:03:26.903Z,985.28
2019-02-10T11:04:26.865Z,985.34
2019-02-10T11:05:26.839Z,985.33
2019-02-10T11:06:26.832Z,985.27
2019-02-10T11:07:26.820Z,985.30
2019-02-10T11:08:26.817Z,985.22
2019-02-10T11:09:26.792Z,985.30
2019-02-10T11:10:28.077Z,985.21
2019-02-10T11:11:26.807Z,985.26
2019-02-10T11:12:26.772Z,985.20
2019-02-10T11:13:26.752Z,985.09
2019-02-10T11:14:26.742Z,985.11
2019-02-10T11:15:26.731Z,985.05
2019-02-10T11:16:26.785Z,985.07
2019-02-10T11:17:26.737Z,985.02
2019-02-10T11:18:26.712Z,985.04
2019-02-10T11:19:26.689Z,985.09
2019-02-10T11:20:26.704Z,985.02
2019-02-10T11:21:26.701Z,985.00
2019-02-10T11:22:26.653Z,985.01
2019-02-10T11:23:26.680Z,984.92
2019-02-10T11:24:28.643Z,984.90
2019-02-10T11:25:26.619Z,984.84
2019-02-10T11:26:26.623Z,984.75
2019-02-10T11:27:26.610Z,984.66
2019-02-10T11:28:26.605Z,984.74
2019-02-10T11:29:26.592Z,984.69
2019-02-10T11:30:26.581Z,984.81
2019-02-10T11:31:26.601Z,984.75
2019-02-10T11:32:26.550Z,984.70
2019-02-10T11:33:26.563Z,984.80
2019-02-10T11:34:26.533Z,984.86
2019-02-10T11:35:26.513Z,984.90
2019-02-10T11:36:26.564Z,984.86
2019-02-10T11:37:27.106Z,984.88
2019-02-10T11:38:26.490Z,984.89
2019-02-10T11:39:26.488Z,984.91
2019-02-10T11:40:26.476Z,984.92
2019-02-10T11:41:26.445Z,984.89
2019-02-10T11:42:26.432Z,984.90
2019-02-10T11:43:26.537Z,984.96
2019-02-10T11:44:26.431Z,984.90
2019-02-10T11:45:26.425Z,984.91
2019-02-10T11:46:26.390Z,984.87
2019-02-10T11:47:26.394Z,984.82
2019-02-10T11:48:26.381Z,984.78
2019-02-10T11:49:26.399Z,984.85
2019-02-10T11:50:26.411Z,984.76
2019-02-10T11:51:26.355Z,984.78
2019-02-10T11:52:26.332Z,984.75
2019-02-10T11:53:26.317Z,984.73
2019-02-10T11:54:26.340Z,984.72
2019-02-10T11:55:26.308Z,984.65
2019-02-10T11:56:26.289Z,984.66
2019-02-10T11:57:26.285Z,984.66
2019-02-10T11:58:26.322Z,984.60
2019-02-10T11:59:26.329Z,984.60
2019-02-10T12:00:26.255Z,984.64
2019-02-10T12:01:26.293Z,984.67
2019-02-10T12:02:26.267Z,984.72
2019-02-10T12:03:26.233Z,984.70
2019-02-10T12:04:26.216Z,984.74
2019-02-10T12:05:26.190Z,984.69
2019-02-10T12:06:26.286Z,984.77
2019-02-10T12:07:26.167Z,984.70
2019-02-10T12:08:34.999Z,984.70
2019-02-10T12:09:26.168Z,984.72
2019-02-10T12:10:26.138Z,984.74
2019-02-10T12:11:26.125Z,984.75
2019-02-10T12:12:26.159Z,984.76
2019-02-10T12:13:26.332Z,984.76
2019-02-10T12:14:26.133Z,984.78
2019-02-10T12:15:26.088Z,984.87
2019-02-10T12:16:26.104Z,984.84
2019-02-10T12:17:26.070Z,984.85
2019-02-10T12:18:26.051Z,984.91
2019-02-10T12:19:26.147Z,984.91
2019-02-10T12:20:26.035Z,984.86
2019-02-10T12:21:26.033Z,984.83
2019-02-10T12:22:26.007Z,984.83
2019-02-10T12:23:26.000Z,984.78
2019-02-10T12:24:26.011Z,984.77
2019-02-10T12:25:25.979Z,984.80
2019-02-10T12:26:25.963Z,984.76
2019-02-10T12:27:25.951Z,984.85